Time;durP1;ratioP1;P1;durP2;ratioP2;P2;SDS_P1;SDS_P2;PMS_P1;PMS_P2;Temp;Humidity;BMP_temperature;BMP_pressure;BME280_temperature;BME280_humidity;BME280_pressure;Samples;Min_cycle;Max_cycle;Signal;HPM_P1;HPM_P2
2021/10/08 00:00:26;;;;;;;10.23;6.60;;;10.70;99.90;;;;;;5000744;28;20116;-67
2021/10/08 00:02:51;;;;;;;9.32;7.07;;;10.70;99.90;;;;;;5000348;28;20650;-67
2021/10/08 00:05:17;;;;;;;7.75;6.38;;;10.70;99.90;;;;;;4997541;28;20114;-67
2021/10/08 00:07:42;;;;;;;7.97;6.35;;;10.90;99.90;;;;;;5000456;28;20444;-67
2021/10/08 00:10:08;;;;;;;9.98;6.88;;;10.70;99.90;;;;;;5001739;28;20076;-67
2021/10/08 00:12:33;;;;;;;10.95;6.30;;;10.80;99.90;;;;;;5000667;28;20061;-67
2021/10/08 00:14:59;;;;;;;7.72;6.20;;;10.90;99.90;;;;;;4999897;28;20081;-68
2021/10/08 00:17:24;;;;;;;7.40;5.70;;;10.90;99.90;;;;;;5010564;28;20061;-67
2021/10/08 00:19:50;;;;;;;9.23;5.75;;;10.80;99.90;;;;;;5001865;28;20428;-67
2021/10/08 00:22:15;;;;;;;9.18;5.85;;;11.00;99.90;;;;;;5011167;28;20123;-67
2021/10/08 00:24:40;;;;;;;8.77;5.57;;;11.00;99.90;;;;;;5002308;28;20034;-67
2021/10/08 00:27:06;;;;;;;9.77;5.85;;;10.80;99.90;;;;;;5001768;28;20031;-67
2021/10/08 00:29:31;;;;;;;7.68;5.45;;;11.00;99.90;;;;;;5001652;28;20442;-67
2021/10/08 00:31:57;;;;;;;9.38;5.50;;;10.90;99.90;;;;;;5001365;28;20036;-67
2021/10/08 00:34:22;;;;;;;7.10;5.22;;;10.90;99.90;;;;;;5001474;28;20034;-68
2021/10/08 00:36:49;;;;;;;7.32;5.28;;;10.90;99.90;;;;;;5000124;28;20030;-67
2021/10/08 00:39:14;;;;;;;6.72;4.65;;;11.00;99.90;;;;;;5000354;28;20682;-67
2021/10/08 00:41:40;;;;;;;9.82;5.18;;;10.90;99.90;;;;;;5007311;28;20399;-67
2021/10/08 00:44:05;;;;;;;8.60;5.22;;;10.90;99.90;;;;;;5002507;28;20053;-67
2021/10/08 00:46:31;;;;;;;8.52;5.38;;;10.80;99.90;;;;;;5003778;28;20029;-67
2021/10/08 00:48:56;;;;;;;7.60;5.13;;;10.90;99.90;;;;;;5001792;28;20046;-68
2021/10/08 00:51:22;;;;;;;8.85;5.13;;;10.90;99.90;;;;;;5009052;28;20030;-67
2021/10/08 00:53:47;;;;;;;9.38;5.40;;;10.90;99.90;;;;;;5002312;28;20841;-67
2021/10/08 00:56:13;;;;;;;7.38;4.75;;;10.90;99.90;;;;;;4999987;28;20033;-67
2021/10/08 00:58:38;;;;;;;7.22;5.47;;;10.90;99.90;;;;;;5002954;28;20087;-67
2021/10/08 01:01:05;;;;;;;7.72;5.03;;;10.90;99.90;;;;;;4998587;28;20497;-67
2021/10/08 01:03:30;;;;;;;9.10;4.63;;;10.80;99.90;;;;;;5016560;28;20618;-67
2021/10/08 01:05:56;;;;;;;6.75;4.90;;;10.80;99.90;;;;;;5002575;28;20054;-67
2021/10/08 01:08:21;;;;;;;6.85;4.55;;;10.90;99.90;;;;;;5008029;28;20033;-67
2021/10/08 01:10:47;;;;;;;7.70;4.75;;;10.90;99.90;;;;;;5009756;28;20718;-67
2021/10/08 01:13:16;;;;;;;6.88;5.05;;;10.80;99.90;;;;;;5001614;28;20453;-67
2021/10/08 01:15:42;;;;;;;11.25;4.93;;;10.80;99.90;;;;;;5009182;28;20025;-67
2021/10/08 01:18:07;;;;;;;9.68;5.05;;;10.80;99.90;;;;;;5000996;28;20038;-67
2021/10/08 01:20:33;;;;;;;9.00;5.18;;;10.70;99.90;;;;;;5002222;28;20041;-67
2021/10/08 01:23:06;;;;;;;9.02;5.15;;;10.70;99.90;;;;;;5009247;28;20578;-67
2021/10/08 01:25:38;;;;;;;9.32;6.13;;;10.70;99.90;;;;;;4999123;28;20041;-67
2021/10/08 01:28:07;;;;;;;9.68;6.20;;;10.50;99.90;;;;;;4996281;28;20025;-67
2021/10/08 01:30:40;;;;;;;9.98;5.95;;;10.40;99.90;;;;;;4999414;28;20038;-67
2021/10/08 01:33:05;;;;;;;11.10;6.85;;;10.60;99.90;;;;;;4999586;28;20036;-68
2021/10/08 01:35:32;;;;;;;9.90;6.78;;;10.30;99.90;;;;;;5001184;28;20065;-67
2021/10/08 01:38:00;;;;;;;15.90;8.95;;;10.30;99.90;;;;;;4998328;28;20460;-67
2021/10/08 01:40:26;;;;;;;14.98;9.23;;;10.40;99.90;;;;;;5007056;28;20038;-67
2021/10/08 01:43:00;;;;;;;13.77;9.80;;;10.40;99.90;;;;;;4997753;28;20515;-67
2021/10/08 01:45:27;;;;;;;17.02;9.82;;;10.20;99.90;;;;;;5000454;28;20880;-67
2021/10/08 01:47:52;;;;;;;13.77;8.63;;;10.20;99.90;;;;;;5011147;28;20041;-67
2021/10/08 01:50:18;;;;;;;17.52;9.93;;;10.10;99.90;;;;;;4998807;28;20030;-67
2021/10/08 01:52:45;;;;;;;14.38;9.27;;;10.10;99.90;;;;;;4999434;28;20034;-67
2021/10/08 01:55:13;;;;;;;14.88;10.23;;;10.00;99.90;;;;;;4998652;28;20109;-67
2021/10/08 01:57:44;;;;;;;15.82;10.27;;;10.00;99.90;;;;;;4999016;28;20029;-67
2021/10/08 02:00:10;;;;;;;15.43;10.05;;;10.10;99.90;;;;;;5004159;28;20025;-67
2021/10/08 02:02:39;;;;;;;18.85;12.07;;;10.10;99.90;;;;;;4999794;28;20052;-67
2021/10/08 02:05:07;;;;;;;18.33;11.30;;;10.10;99.90;;;;;;5000009;28;20065;-67
2021/10/08 02:07:34;;;;;;;19.55;11.57;;;9.90;99.90;;;;;;4982833;28;20529;-67
2021/10/08 02:10:04;;;;;;;23.67;12.15;;;9.90;99.90;;;;;;5006962;28;20096;-67
2021/10/08 02:12:33;;;;;;;15.23;10.05;;;9.30;99.90;;;;;;4997543;28;20030;-67
2021/10/08 02:14:58;;;;;;;18.80;11.27;;;9.80;99.90;;;;;;5005934;28;20413;-67
2021/10/08 02:17:24;;;;;;;15.85;10.93;;;9.80;99.90;;;;;;4997657;28;20113;-67
2021/10/08 02:19:50;;;;;;;21.40;11.30;;;9.30;99.90;;;;;;4999187;28;20106;-67
2021/10/08 02:22:15;;;;;;;16.58;11.50;;;9.50;99.90;;;;;;4999052;28;20022;-67
2021/10/08 02:24:47;;;;;;;18.13;10.55;;;9.80;99.90;;;;;;4981198;28;20030;-67
2021/10/08 02:27:12;;;;;;;15.23;9.75;;;9.60;99.90;;;;;;4998592;28;20033;-67
2021/10/08 02:29:39;;;;;;;20.83;10.45;;;9.50;99.90;;;;;;4996170;28;20034;-69
2021/10/08 02:32:07;;;;;;;18.53;11.40;;;9.50;99.90;;;;;;4998600;28;20037;-67
2021/10/08 02:34:33;;;;;;;17.83;10.88;;;9.40;99.90;;;;;;4998726;28;20125;-67
2021/10/08 02:36:59;;;;;;;14.68;10.20;;;9.60;99.90;;;;;;4999791;28;20116;-67
2021/10/08 02:39:24;;;;;;;15.10;10.10;;;9.10;99.90;;;;;;5000942;28;20926;-67
2021/10/08 02:41:50;;;;;;;15.95;10.02;;;;;;;;;;4997720;28;20034;-67
2021/10/08 02:44:16;;;;;;;16.25;10.35;;;8.90;99.90;;;;;;4998851;28;20056;-67
2021/10/08 02:46:41;;;;;;;16.63;10.52;;;9.20;99.90;;;;;;5006495;28;20033;-67
2021/10/08 02:49:07;;;;;;;14.38;10.05;;;9.40;99.90;;;;;;4997576;28;20076;-67
2021/10/08 02:51:33;;;;;;;14.82;8.93;;;9.10;99.90;;;;;;4999717;28;20041;-67
2021/10/08 02:53:59;;;;;;;16.83;9.88;;;8.80;99.90;;;;;;4997771;28;20060;-67
2021/10/08 02:56:25;;;;;;;19.33;10.10;;;8.90;99.90;;;;;;4995291;28;20737;-68
2021/10/08 02:58:51;;;;;;;17.48;10.60;;;8.60;99.90;;;;;;4994065;28;20059;-67
2021/10/08 03:01:17;;;;;;;20.42;11.63;;;9.00;99.90;;;;;;4998842;28;20041;-67
2021/10/08 03:03:42;;;;;;;19.40;9.95;;;8.90;99.90;;;;;;4997661;28;20113;-68
2021/10/08 03:06:08;;;;;;;16.33;10.00;;;8.90;99.90;;;;;;4997783;28;20077;-67
2021/10/08 03:08:33;;;;;;;14.77;9.35;;;8.80;99.90;;;;;;4998134;28;20117;-67
2021/10/08 03:10:59;;;;;;;19.77;11.70;;;8.80;99.90;;;;;;5001175;28;20068;-68
2021/10/08 03:13:25;;;;;;;17.23;11.00;;;8.70;99.90;;;;;;4981082;28;20038;-67
2021/10/08 03:15:51;;;;;;;16.85;11.35;;;8.70;99.90;;;;;;4999610;28;20940;-67
2021/10/08 03:18:17;;;;;;;18.48;10.23;;;8.00;99.90;;;;;;4997816;28;20030;-67
2021/10/08 03:20:43;;;;;;;23.88;13.18;;;8.80;99.90;;;;;;4999070;28;20065;-67
2021/10/08 03:23:10;;;;;;;24.20;12.32;;;8.80;99.90;;;;;;4999659;28;20036;-67
2021/10/08 03:25:35;;;;;;;20.23;11.57;;;8.80;99.90;;;;;;5000222;28;20040;-67
2021/10/08 03:28:01;;;;;;;26.95;13.25;;;8.80;99.90;;;;;;4999635;28;20112;-67
2021/10/08 03:30:28;;;;;;;21.67;13.68;;;8.70;99.90;;;;;;4982047;28;20397;-67
2021/10/08 03:32:54;;;;;;;17.13;11.80;;;8.70;99.90;;;;;;5000661;28;20026;-67
2021/10/08 03:35:20;;;;;;;26.08;12.38;;;8.70;99.90;;;;;;4999187;28;20033;-67
2021/10/08 03:40:22;;;;;;;20.88;11.18;;;8.60;99.90;;;;;;5000839;28;20486;-67
2021/10/08 03:42:48;;;;;;;14.90;9.77;;;8.60;99.90;;;;;;4994862;28;20034;-67
2021/10/08 03:45:15;;;;;;;17.08;9.73;;;8.60;99.90;;;;;;5007909;28;20037;-67
2021/10/08 03:48:07;;;;;;;16.58;9.63;;;8.40;99.90;;;;;;5001386;28;20089;-67
2021/10/08 03:50:32;;;;;;;13.70;9.07;;;8.40;99.90;;;;;;4995945;28;20076;-67
2021/10/08 03:52:58;;;;;;;15.82;9.70;;;8.30;99.90;;;;;;4999487;28;20058;-67
2021/10/08 03:55:23;;;;;;;18.73;10.90;;;8.30;99.90;;;;;;5001490;28;20397;-67
2021/10/08 03:57:49;;;;;;;19.05;10.85;;;8.20;99.90;;;;;;5000385;28;20053;-67
2021/10/08 04:00:14;;;;;;;23.05;10.90;;;8.30;99.90;;;;;;5003325;28;20034;-67
2021/10/08 04:02:43;;;;;;;17.73;10.70;;;8.30;99.90;;;;;;5002852;28;20107;-68
2021/10/08 04:05:12;;;;;;;18.80;11.02;;;8.20;99.90;;;;;;4998830;28;20112;-67
2021/10/08 04:07:39;;;;;;;18.95;11.73;;;8.20;99.90;;;;;;5000368;28;20037;-67
2021/10/08 04:10:05;;;;;;;21.75;11.85;;;8.20;99.90;;;;;;5001793;28;20100;-67
2021/10/08 04:12:31;;;;;;;21.45;12.60;;;8.20;99.90;;;;;;5002319;28;20505;-67
2021/10/08 04:14:58;;;;;;;23.38;13.32;;;8.20;99.90;;;;;;5010177;28;20025;-67
2021/10/08 04:17:24;;;;;;;19.75;11.60;;;8.20;99.90;;;;;;5003094;28;20489;-67
2021/10/08 04:19:50;;;;;;;20.23;11.48;;;8.20;99.90;;;;;;4999533;28;20034;-67
2021/10/08 04:22:15;;;;;;;16.38;9.65;;;8.20;99.90;;;;;;4997015;28;20699;-67
2021/10/08 04:24:41;;;;;;;21.25;12.27;;;8.10;99.90;;;;;;4995922;28;20032;-68
2021/10/08 04:27:07;;;;;;;19.42;11.02;;;8.10;99.90;;;;;;4996917;28;20450;-67
2021/10/08 04:29:32;;;;;;;21.05;12.27;;;8.10;99.90;;;;;;5001310;28;20055;-68
2021/10/08 04:31:58;;;;;;;18.20;11.32;;;8.10;99.90;;;;;;5001720;28;20251;-67
2021/10/08 04:34:24;;;;;;;18.70;10.93;;;8.10;99.90;;;;;;4999543;28;20039;-67
2021/10/08 04:36:50;;;;;;;22.42;11.80;;;8.10;99.90;;;;;;5002107;28;20037;-67
2021/10/08 04:39:16;;;;;;;18.17;11.05;;;8.00;99.90;;;;;;4990438;28;20030;-67
2021/10/08 04:41:43;;;;;;;17.77;9.75;;;7.90;99.90;;;;;;4983131;28;20058;-68
2021/10/08 04:44:14;;;;;;;24.60;11.48;;;7.80;99.90;;;;;;4999232;28;20938;-67
2021/10/08 04:46:41;;;;;;;23.35;11.45;;;7.80;99.90;;;;;;5001075;28;20782;-67
2021/10/08 04:49:07;;;;;;;20.63;12.57;;;7.90;99.90;;;;;;4981425;28;20042;-67
2021/10/08 04:51:32;;;;;;;23.17;13.32;;;8.10;99.90;;;;;;4998343;28;20025;-67
2021/10/08 04:53:58;;;;;;;22.92;13.40;;;8.10;99.90;;;;;;4998355;28;20069;-67
2021/10/08 04:56:24;;;;;;;22.52;13.93;;;8.20;99.90;;;;;;5002392;28;20512;-67
2021/10/08 04:58:50;;;;;;;25.10;15.10;;;8.40;99.90;;;;;;4999697;28;20030;-67
2021/10/08 05:01:16;;;;;;;22.40;13.57;;;8.50;99.90;;;;;;4999449;28;20109;-67
2021/10/08 05:03:42;;;;;;;19.85;11.95;;;8.60;99.90;;;;;;4998921;28;20065;-67
2021/10/08 05:06:09;;;;;;;21.05;11.52;;;8.60;99.90;;;;;;4999745;28;20030;-66
2021/10/08 05:08:43;;;;;;;20.60;11.10;;;8.60;99.90;;;;;;4998722;28;20033;-67
2021/10/08 05:11:12;;;;;;;23.30;12.77;;;8.60;99.90;;;;;;5000725;28;20128;-67
2021/10/08 05:13:38;;;;;;;29.55;15.15;;;8.60;99.90;;;;;;4999506;28;20046;-66
2021/10/08 05:16:03;;;;;;;32.53;16.85;;;8.70;99.90;;;;;;4998846;28;20088;-66
2021/10/08 05:18:29;;;;;;;27.38;15.05;;;8.80;99.90;;;;;;4996158;28;20050;-67
2021/10/08 05:20:55;;;;;;;29.67;15.60;;;8.80;99.90;;;;;;4980943;28;20044;-66
2021/10/08 05:23:21;;;;;;;32.17;17.90;;;8.90;99.90;;;;;;5001132;28;20030;-67
2021/10/08 05:25:47;;;;;;;30.50;16.83;;;;;;;;;;4975409;28;20676;-66
2021/10/08 05:28:13;;;;;;;50.58;21.27;;;8.90;99.90;;;;;;4995865;28;20832;-66
2021/10/08 05:30:38;;;;;;;33.22;17.35;;;8.90;99.90;;;;;;4997422;28;20122;-66
2021/10/08 05:33:04;;;;;;;40.08;19.38;;;8.90;99.90;;;;;;4998325;28;20029;-66
2021/10/08 05:35:30;;;;;;;28.95;15.25;;;8.90;99.90;;;;;;4998355;28;20494;-66
2021/10/08 05:37:55;;;;;;;37.47;19.15;;;8.90;99.90;;;;;;4998503;28;20029;-66
2021/10/08 05:40:21;;;;;;;32.65;16.42;;;8.90;99.90;;;;;;4999046;28;20033;-66
2021/10/08 05:42:47;;;;;;;29.73;15.65;;;8.80;99.90;;;;;;5001361;28;20040;-66
2021/10/08 05:45:14;;;;;;;28.67;15.32;;;8.80;99.90;;;;;;4998682;28;20577;-66
2021/10/08 05:47:40;;;;;;;40.50;19.75;;;8.80;99.90;;;;;;4998984;28;20096;-66
2021/10/08 05:50:07;;;;;;;40.25;18.10;;;8.80;99.90;;;;;;4998911;28;20033;-66
2021/10/08 05:52:32;;;;;;;61.75;26.08;;;8.80;99.90;;;;;;4999265;28;20030;-66
2021/10/08 05:54:58;;;;;;;64.03;24.17;;;8.90;99.90;;;;;;4999118;28;20041;-66
2021/10/08 05:57:24;;;;;;;48.47;22.30;;;8.90;99.90;;;;;;4998604;28;20831;-66
2021/10/08 05:59:49;;;;;;;46.58;20.27;;;9.00;99.90;;;;;;4997823;28;20022;-66
2021/10/08 06:02:15;;;;;;;65.05;27.75;;;8.90;99.90;;;;;;4982909;28;20021;-66
2021/10/08 06:04:41;;;;;;;53.17;22.08;;;9.00;99.90;;;;;;4999529;28;20037;-66
2021/10/08 06:07:08;;;;;;;54.90;24.42;;;9.10;99.90;;;;;;4993701;28;20085;-65
2021/10/08 06:09:34;;;;;;;64.85;26.77;;;9.20;99.90;;;;;;4994816;28;20714;-66
2021/10/08 06:11:59;;;;;;;65.43;26.10;;;9.20;99.90;;;;;;4995433;28;20037;-66
2021/10/08 06:14:25;;;;;;;69.07;27.05;;;9.20;99.90;;;;;;4997483;28;20041;-66
2021/10/08 06:16:52;;;;;;;67.40;27.15;;;9.30;99.90;;;;;;4997583;28;20018;-66
2021/10/08 06:19:20;;;;;;;72.43;29.17;;;9.30;99.90;;;;;;4998232;28;20029;-66
2021/10/08 06:21:46;;;;;;;71.70;27.45;;;9.40;99.90;;;;;;4992928;28;20029;-66
2021/10/08 06:24:12;;;;;;;70.88;28.45;;;9.40;99.90;;;;;;4990673;28;20050;-66
2021/10/08 06:26:38;;;;;;;79.88;30.08;;;9.50;99.90;;;;;;4995581;28;20175;-66
2021/10/08 06:29:03;;;;;;;75.38;30.20;;;9.60;99.90;;;;;;4994090;28;20074;-66
2021/10/08 06:31:31;;;;;;;77.13;29.42;;;9.70;99.90;;;;;;5002922;28;20030;-67
2021/10/08 06:33:58;;;;;;;72.22;28.80;;;9.70;99.90;;;;;;4999201;28;20658;-66
2021/10/08 06:36:24;;;;;;;71.10;29.17;;;9.80;99.90;;;;;;5005552;28;20033;-66
2021/10/08 06:38:52;;;;;;;107.00;38.28;;;10.00;99.90;;;;;;4998511;28;20053;-66
2021/10/08 06:41:17;;;;;;;89.18;34.30;;;10.10;99.90;;;;;;4992540;28;20131;-66
2021/10/08 06:43:45;;;;;;;82.22;32.70;;;10.20;99.90;;;;;;4992432;28;20867;-66
2021/10/08 06:46:21;;;;;;;97.05;37.67;;;10.30;99.90;;;;;;4999698;28;20066;-66
2021/10/08 06:48:48;;;;;;;101.38;38.85;;;10.40;99.90;;;;;;4998150;28;20029;-66
2021/10/08 06:51:14;;;;;;;108.57;42.63;;;10.50;99.90;;;;;;4991860;28;20041;-67
2021/10/08 06:53:40;;;;;;;117.55;45.08;;;10.70;99.90;;;;;;4981506;28;20038;-66
2021/10/08 06:56:07;;;;;;;111.53;45.47;;;10.80;99.90;;;;;;4998131;28;20091;-67
2021/10/08 06:58:52;;;;;;;93.90;40.58;;;10.90;99.90;;;;;;4990951;28;20116;-66
2021/10/08 07:01:19;;;;;;;89.20;38.67;;;10.90;99.90;;;;;;4997556;28;20058;-66
2021/10/08 07:03:46;;;;;;;80.60;38.53;;;11.10;99.90;;;;;;4981155;28;20038;-66
2021/10/08 07:06:13;;;;;;;71.07;34.92;;;11.10;99.90;;;;;;4997179;28;20045;-66
2021/10/08 07:08:39;;;;;;;76.35;36.88;;;11.00;99.90;;;;;;4997829;28;20398;-67
2021/10/08 07:11:06;;;;;;;63.97;33.35;;;11.00;99.90;;;;;;4998958;28;20551;-67
2021/10/08 07:13:32;;;;;;;74.80;36.92;;;11.20;99.90;;;;;;4997459;28;20034;-66
2021/10/08 07:15:58;;;;;;;70.35;34.92;;;11.40;99.90;;;;;;4992077;28;20062;-66
2021/10/08 07:18:32;;;;;;;69.65;33.53;;;11.50;99.90;;;;;;5000494;28;20777;-66
2021/10/08 07:20:58;;;;;;;74.55;35.15;;;11.80;99.90;;;;;;4992092;28;20037;-66
2021/10/08 07:23:23;;;;;;;68.50;33.53;;;11.80;99.90;;;;;;4994012;28;20037;-66
2021/10/08 07:25:49;;;;;;;68.30;33.45;;;11.90;99.90;;;;;;4996377;28;20422;-66
2021/10/08 07:28:14;;;;;;;63.88;33.05;;;12.10;99.90;;;;;;4997821;28;20496;-66
2021/10/08 07:30:40;;;;;;;71.95;35.95;;;12.10;99.90;;;;;;4998323;28;20625;-66
2021/10/08 07:33:05;;;;;;;61.35;32.30;;;12.10;99.90;;;;;;4998870;28;20618;-66
2021/10/08 07:35:31;;;;;;;68.13;33.80;;;12.20;99.90;;;;;;5002370;28;20030;-66
2021/10/08 07:37:56;;;;;;;60.85;34.13;;;12.10;99.90;;;;;;5005118;28;20029;-66
2021/10/08 07:40:22;;;;;;;69.63;34.38;;;12.20;99.90;;;;;;4999952;28;20793;-66
2021/10/08 07:42:47;;;;;;;65.43;34.33;;;12.40;99.90;;;;;;5004524;28;20026;-66
2021/10/08 07:45:13;;;;;;;57.20;31.92;;;12.80;99.90;;;;;;5002723;28;20037;-66
2021/10/08 07:47:38;;;;;;;59.05;32.83;;;12.80;99.90;;;;;;5004847;28;20034;-66
2021/10/08 07:50:04;;;;;;;52.33;31.65;;;13.00;99.90;;;;;;5001313;28;20040;-66
2021/10/08 07:52:29;;;;;;;57.10;30.65;;;13.00;99.90;;;;;;5016646;28;20537;-66
2021/10/08 07:54:55;;;;;;;57.33;31.55;;;13.00;99.90;;;;;;5005391;28;20026;-66
2021/10/08 07:57:20;;;;;;;53.53;29.67;;;13.00;99.90;;;;;;5002805;28;20060;-67
2021/10/08 07:59:46;;;;;;;62.42;33.92;;;13.00;99.90;;;;;;5004360;28;20497;-66
2021/10/08 08:02:11;;;;;;;57.75;31.23;;;12.90;99.90;;;;;;4995288;28;20034;-66
2021/10/08 08:04:37;;;;;;;52.22;30.80;;;13.00;99.90;;;;;;5004352;28;20820;-67
2021/10/08 08:07:02;;;;;;;68.80;34.97;;;13.30;99.90;;;;;;4994300;28;20125;-67
2021/10/08 08:09:28;;;;;;;58.88;29.85;;;13.40;99.90;;;;;;4995593;28;20137;-66
2021/10/08 08:11:53;;;;;;;55.33;29.88;;;13.60;99.90;;;;;;4996924;28;20042;-66
2021/10/08 08:14:19;;;;;;;56.65;29.48;;;13.90;99.90;;;;;;5001822;28;20462;-66
2021/10/08 08:16:44;;;;;;;47.65;28.08;;;14.80;99.90;;;;;;4996306;28;20403;-66
2021/10/08 08:19:11;;;;;;;53.55;28.30;;;14.50;99.90;;;;;;4997099;28;20144;-66
2021/10/08 08:21:37;;;;;;;52.78;28.30;;;14.80;99.90;;;;;;5013764;28;20030;-66
2021/10/08 08:24:02;;;;;;;45.20;25.10;;;14.90;99.90;;;;;;5000744;28;20096;-66
2021/10/08 08:26:28;;;;;;;47.03;25.83;;;;;;;;;;5003946;28;20185;-66
2021/10/08 08:28:54;;;;;;;45.60;25.10;;;15.10;99.90;;;;;;5003128;28;20052;-66
2021/10/08 08:31:19;;;;;;;49.95;25.70;;;15.50;99.90;;;;;;5001109;28;20068;-66
2021/10/08 08:33:45;;;;;;;49.28;27.10;;;15.10;99.90;;;;;;4998992;28;20584;-66
2021/10/08 08:36:11;;;;;;;43.05;25.15;;;14.90;99.90;;;;;;4998316;28;20036;-66
2021/10/08 08:38:36;;;;;;;47.35;26.67;;;15.40;99.90;;;;;;5001591;28;20445;-66
2021/10/08 08:41:02;;;;;;;48.38;25.52;;;14.90;99.90;;;;;;4999713;28;20056;-66
2021/10/08 08:43:28;;;;;;;47.05;26.30;;;15.00;99.90;;;;;;4999058;28;20159;-66
2021/10/08 08:45:53;;;;;;;49.85;25.85;;;14.90;99.90;;;;;;4999281;28;20121;-66
2021/10/08 08:48:19;;;;;;;49.05;25.17;;;14.70;99.90;;;;;;5004511;28;20137;-66
2021/10/08 08:50:45;;;;;;;45.42;24.67;;;14.40;99.90;;;;;;5003524;28;20102;-66
2021/10/08 08:53:10;;;;;;;39.13;22.52;;;;;;;;;;5001756;28;20092;-66
2021/10/08 08:55:36;;;;;;;46.95;24.25;;;;;;;;;;5002221;28;20621;-66
2021/10/08 08:58:02;;;;;;;42.85;21.35;;;;;;;;;;4998096;28;20352;-66
2021/10/08 09:00:28;;;;;;;38.20;20.40;;;;;;;;;;4997947;28;20033;-66
2021/10/08 09:02:54;;;;;;;40.72;20.42;;;;;;;;;;4999620;28;20069;-66
2021/10/08 09:05:20;;;;;;;39.50;21.17;;;;;;;;;;5007020;28;20064;-66
2021/10/08 09:07:46;;;;;;;37.42;20.25;;;;;;;;;;4999837;28;20450;-66
2021/10/08 09:10:12;;;;;;;43.83;22.00;;;;;;;;;;4997070;28;20582;-66
2021/10/08 09:12:39;;;;;;;44.78;21.10;;;;;;;;;;4998180;28;20030;-66
2021/10/08 09:15:05;;;;;;;40.80;19.95;;;;;;;;;;5001609;28;20121;-66
2021/10/08 09:17:31;;;;;;;42.00;19.83;;;;;;;;;;5002223;28;20042;-66
2021/10/08 09:19:57;;;;;;;37.42;20.58;;;;;;;;;;4999603;28;20044;-66
2021/10/08 09:22:23;;;;;;;41.58;20.88;;;;;;;;;;5003122;28;20474;-66
2021/10/08 09:24:49;;;;;;;42.33;22.27;;;;;;;;;;4995080;28;20096;-66
2021/10/08 09:27:15;;;;;;;42.22;18.83;;;;;;;;;;4998815;28;20026;-68
2021/10/08 09:29:41;;;;;;;41.97;20.95;;;;;;;;;;4998318;28;20493;-70
2021/10/08 09:32:07;;;;;;;43.50;19.20;;;;;;;;;;4997019;28;20029;-71
2021/10/08 09:34:33;;;;;;;30.65;16.98;;;;;;;;;;4999291;28;20478;-67
2021/10/08 09:37:04;;;;;;;44.38;17.60;;;;;;;;;;4999346;28;20033;-67
2021/10/08 09:39:34;;;;;;;38.42;18.27;;;;;;;;;;4995355;28;20041;-67
2021/10/08 09:42:00;;;;;;;36.88;17.75;;;;;;;;;;4993597;28;20041;-67
2021/10/08 09:44:26;;;;;;;33.80;17.40;;;;;;;;;;4992474;28;20072;-67
2021/10/08 09:46:51;;;;;;;32.80;16.52;;;15.90;99.90;;;;;;4995365;28;20405;-66
2021/10/08 09:49:17;;;;;;;36.13;17.75;;;;;;;;;;4998197;28;20405;-66
2021/10/08 09:51:43;;;;;;;35.53;17.25;;;16.30;99.90;;;;;;5011581;28;20088;-66
2021/10/08 09:54:08;;;;;;;33.40;16.73;;;16.40;99.90;;;;;;4999301;28;20037;-66
2021/10/08 09:56:34;;;;;;;38.75;17.80;;;16.60;99.90;;;;;;4999674;28;20066;-66
2021/10/08 09:59:00;;;;;;;27.92;16.02;;;16.60;99.90;;;;;;4995288;28;20061;-66
2021/10/08 10:01:26;;;;;;;27.33;14.80;;;16.70;99.90;;;;;;5000547;28;20699;-66
2021/10/08 10:03:54;;;;;;;38.83;15.90;;;16.70;99.90;;;;;;4998722;28;20111;-66
2021/10/08 10:06:20;;;;;;;30.35;14.93;;;16.60;99.90;;;;;;4980756;28;20040;-68
2021/10/08 10:08:47;;;;;;;36.63;16.00;;;16.70;99.90;;;;;;5000079;28;20037;-67
2021/10/08 10:11:13;;;;;;;27.30;14.38;;;16.90;99.90;;;;;;4997697;28;20200;-67
2021/10/08 10:13:40;;;;;;;24.60;13.98;;;16.90;99.90;;;;;;4998789;28;20038;-66
2021/10/08 10:16:06;;;;;;;29.90;12.60;;;16.90;99.90;;;;;;4994370;28;20106;-67
2021/10/08 10:18:31;;;;;;;29.10;14.27;;;17.00;99.90;;;;;;4996826;28;20117;-67
2021/10/08 10:20:57;;;;;;;27.67;13.57;;;17.00;99.90;;;;;;4997942;28;20572;-66
2021/10/08 10:23:22;;;;;;;26.40;12.90;;;17.20;99.90;;;;;;4994174;28;20042;-67
2021/10/08 10:25:48;;;;;;;29.67;12.15;;;17.40;99.90;;;;;;5002035;28;20042;-66
2021/10/08 10:28:13;;;;;;;28.95;12.38;;;17.40;99.90;;;;;;4998274;28;20030;-66
2021/10/08 10:30:39;;;;;;;23.20;12.18;;;17.40;99.90;;;;;;5002064;28;20649;-66
2021/10/08 10:33:04;;;;;;;23.90;12.65;;;17.50;99.90;;;;;;5003762;28;20112;-67
2021/10/08 10:35:30;;;;;;;19.05;10.38;;;17.40;99.90;;;;;;4996688;28;20571;-66
2021/10/08 10:37:55;;;;;;;28.85;11.43;;;17.30;99.90;;;;;;4999745;28;20045;-66
2021/10/08 10:40:21;;;;;;;19.98;10.05;;;17.30;99.80;;;;;;5002163;28;20036;-66
2021/10/08 10:42:46;;;;;;;18.70;10.38;;;17.50;99.90;;;;;;5000093;28;20065;-67
2021/10/08 10:45:17;;;;;;;23.08;10.70;;;17.50;99.90;;;;;;5001440;28;20547;-67
2021/10/08 10:47:45;;;;;;;24.98;10.15;;;16.90;99.90;;;;;;4990688;28;20052;-67
2021/10/08 10:50:14;;;;;;;25.77;10.48;;;17.30;99.40;;;;;;4994783;28;20041;-67
2021/10/08 10:52:40;;;;;;;21.73;10.30;;;17.30;99.20;;;;;;5004460;28;20046;-67
2021/10/08 10:55:05;;;;;;;24.42;9.45;;;17.40;99.60;;;;;;4997814;28;20022;-67
2021/10/08 10:57:31;;;;;;;28.88;10.65;;;17.60;98.10;;;;;;4998790;28;20057;-66
2021/10/08 10:59:57;;;;;;;22.70;9.25;;;17.60;98.60;;;;;;4998048;28;20112;-67
2021/10/08 11:02:22;;;;;;;25.35;9.23;;;17.70;97.70;;;;;;4993553;28;20116;-68
2021/10/08 11:04:49;;;;;;;29.27;10.20;;;17.60;98.10;;;;;;4994815;28;20037;-69
2021/10/08 11:07:14;;;;;;;24.73;9.65;;;17.60;97.10;;;;;;4998538;28;20048;-69
2021/10/08 11:09:40;;;;;;;26.60;9.35;;;17.50;96.50;;;;;;5000137;28;20034;-69
2021/10/08 11:12:05;;;;;;;21.08;8.40;;;17.40;98.00;;;;;;4994030;28;20117;-70
2021/10/08 11:14:31;;;;;;;24.92;8.10;;;17.40;97.40;;;;;;4998780;28;20096;-69
2021/10/08 11:16:56;;;;;;;20.05;8.02;;;17.50;97.30;;;;;;4995319;28;20671;-69
2021/10/08 11:19:21;;;;;;;25.20;8.50;;;17.80;97.40;;;;;;4997698;28;20073;-69
2021/10/08 11:21:47;;;;;;;21.42;8.57;;;17.80;96.20;;;;;;4998494;28;20041;-69
2021/10/08 11:24:13;;;;;;;24.90;8.18;;;18.00;95.00;;;;;;4999650;28;20970;-69
2021/10/08 11:26:38;;;;;;;20.73;7.70;;;17.80;96.60;;;;;;4991606;28;20042;-69
2021/10/08 11:29:05;;;;;;;30.02;7.78;;;18.00;96.00;;;;;;4999191;28;20038;-69
2021/10/08 11:31:30;;;;;;;24.20;7.85;;;18.00;94.90;;;;;;4996840;28;20044;-68
2021/10/08 11:33:58;;;;;;;19.85;7.43;;;;;;;;;;4996555;28;20042;-68
2021/10/08 11:36:24;;;;;;;18.23;6.93;;;18.60;95.20;;;;;;4998553;28;20157;-74
2021/10/08 11:38:53;;;;;;;19.75;7.07;;;;;;;;;;4996905;28;20030;-75
2021/10/08 11:41:19;;;;;;;29.63;8.15;;;18.10;95.30;;;;;;5000512;28;20128;-72
2021/10/08 11:43:45;;;;;;;17.92;7.55;;;17.00;96.50;;;;;;5001475;28;20164;-73
2021/10/08 11:46:18;;;;;;;24.38;7.40;;;18.80;98.50;;;;;;4994511;28;20120;-72
2021/10/08 11:48:57;;;;;;;25.50;7.25;;;18.70;97.30;;;;;;4996246;28;20125;-73
2021/10/08 11:51:26;;;;;;;19.67;8.27;;;;;;;;;;4994279;28;20037;-71
2021/10/08 11:53:56;;;;;;;27.73;8.82;;;18.70;99.20;;;;;;4988416;28;20074;-68
2021/10/08 11:56:27;;;;;;;19.67;7.68;;;18.50;97.80;;;;;;4991292;28;20032;-68
2021/10/08 11:58:53;;;;;;;17.50;7.28;;;;;;;;;;4994982;28;20037;-68
2021/10/08 12:01:18;;;;;;;15.02;6.90;;;18.40;96.70;;;;;;4996821;28;20034;-68
2021/10/08 12:03:44;;;;;;;24.83;7.93;;;19.40;95.10;;;;;;4997338;28;20048;-68
2021/10/08 12:06:09;;;;;;;22.23;7.22;;;18.30;97.20;;;;;;4996971;28;20038;-68
2021/10/08 12:08:36;;;;;;;22.33;7.13;;;18.70;93.70;;;;;;4993191;28;20042;-68
2021/10/08 12:11:02;;;;;;;44.33;8.07;;;18.40;93.40;;;;;;4998413;28;20441;-68
2021/10/08 12:13:28;;;;;;;22.38;7.03;;;;;;;;;;4997903;28;20038;-68
2021/10/08 12:15:54;;;;;;;20.65;7.25;;;;;;;;;;5002227;28;20091;-68
2021/10/08 12:18:19;;;;;;;23.05;7.82;;;18.80;94.00;;;;;;5000089;28;20060;-68
2021/10/08 12:20:45;;;;;;;19.17;7.80;;;;;;;;;;4993467;28;20125;-68
2021/10/08 12:23:11;;;;;;;24.83;8.27;;;18.40;94.70;;;;;;4996394;28;20038;-68
2021/10/08 12:25:36;;;;;;;24.27;7.18;;;17.10;96.90;;;;;;5001986;28;20038;-68
2021/10/08 12:28:03;;;;;;;20.83;6.85;;;19.00;94.10;;;;;;5003846;28;20045;-68
2021/10/08 12:30:29;;;;;;;19.65;7.90;;;;;;;;;;5000618;28;20046;-68
2021/10/08 12:32:55;;;;;;;22.60;6.60;;;;;;;;;;5001493;28;20036;-68
2021/10/08 12:35:21;;;;;;;17.13;6.78;;;;;;;;;;4997980;28;20443;-68
2021/10/08 12:37:48;;;;;;;24.85;7.38;;;;;;;;;;4998416;28;20425;-68
2021/10/08 12:40:15;;;;;;;16.42;7.82;;;19.10;99.80;;;;;;4995399;28;20472;-68
2021/10/08 12:42:43;;;;;;;28.45;8.90;;;;;;;;;;5001224;28;20111;-69
2021/10/08 12:45:18;;;;;;;22.00;7.03;;;;;;;;;;5002703;28;20037;-68